sensor_id;sensor_type;location;lat;lon;timestamp;temperature;humidity
23783;DHT22;12071;50.850;4.446;2023-02-28T00:00:51;1.90;99.90
23783;DHT22;12071;50.850;4.446;2023-02-28T00:03:17;2.00;99.90
23783;DHT22;12071;50.850;4.446;2023-02-28T00:05:43;1.80;99.90
23783;DHT22;12071;50.850;4.446;2023-02-28T00:08:09;1.70;99.90
23783;DHT22;12071;50.850;4.446;2023-02-28T00:10:34;1.70;1.00
23783;DHT22;12071;50.850;4.446;2023-02-28T00:13:04;1.80;1.00
23783;DHT22;12071;50.850;4.446;2023-02-28T00:15:30;1.70;1.00
23783;DHT22;12071;50.850;4.446;2023-02-28T00:17:56;1.80;42.90
23783;DHT22;12071;50.850;4.446;2023-02-28T00:20:21;1.80;1.00
23783;DHT22;12071;50.850;4.446;2023-02-28T00:22:49;1.80;1.00
23783;DHT22;12071;50.850;4.446;2023-02-28T00:25:21;1.90;1.90
23783;DHT22;12071;50.850;4.446;2023-02-28T00:27:47;1.90;1.00
23783;DHT22;12071;50.850;4.446;2023-02-28T00:30:16;1.90;1.00
23783;DHT22;12071;50.850;4.446;2023-02-28T00:32:43;1.70;1.00
23783;DHT22;12071;50.850;4.446;2023-02-28T00:35:11;1.60;42.00
23783;DHT22;12071;50.850;4.446;2023-02-28T00:37:37;1.60;99.90
23783;DHT22;12071;50.850;4.446;2023-02-28T00:40:03;1.70;99.90
23783;DHT22;12071;50.850;4.446;2023-02-28T00:42:31;1.60;99.90
23783;DHT22;12071;50.850;4.446;2023-02-28T00:44:57;1.60;99.90
23783;DHT22;12071;50.850;4.446;2023-02-28T00:47:22;1.40;99.90
23783;DHT22;12071;50.850;4.446;2023-02-28T00:49:48;1.40;1.00
23783;DHT22;12071;50.850;4.446;2023-02-28T00:52:13;1.40;20.30
23783;DHT22;12071;50.850;4.446;2023-02-28T00:54:39;1.30;99.90
23783;DHT22;12071;50.850;4.446;2023-02-28T00:57:04;1.30;99.90
23783;DHT22;12071;50.850;4.446;2023-02-28T00:59:30;1.30;1.00
23783;DHT22;12071;50.850;4.446;2023-02-28T01:01:56;1.20;1.00
23783;DHT22;12071;50.850;4.446;2023-02-28T01:04:21;1.30;1.00
23783;DHT22;12071;50.850;4.446;2023-02-28T01:06:47;1.30;1.00
23783;DHT22;12071;50.850;4.446;2023-02-28T01:09:13;1.30;1.00
23783;DHT22;12071;50.850;4.446;2023-02-28T01:11:38;1.20;99.90
23783;DHT22;12071;50.850;4.446;2023-02-28T01:14:05;1.20;99.90
23783;DHT22;12071;50.850;4.446;2023-02-28T01:16:31;1.30;1.00
23783;DHT22;12071;50.850;4.446;2023-02-28T01:18:57;1.30;1.00
23783;DHT22;12071;50.850;4.446;2023-02-28T01:21:23;1.30;99.90
23783;DHT22;12071;50.850;4.446;2023-02-28T01:23:51;1.30;99.90
23783;DHT22;12071;50.850;4.446;2023-02-28T01:26:20;1.10;99.90
23783;DHT22;12071;50.850;4.446;2023-02-28T01:28:46;1.00;99.90
23783;DHT22;12071;50.850;4.446;2023-02-28T01:31:12;1.00;99.90
23783;DHT22;12071;50.850;4.446;2023-02-28T01:33:39;0.90;99.90
23783;DHT22;12071;50.850;4.446;2023-02-28T01:36:08;0.90;1.00
23783;DHT22;12071;50.850;4.446;2023-02-28T01:38:34;0.90;1.00
23783;DHT22;12071;50.850;4.446;2023-02-28T01:41:00;0.80;1.60
23783;DHT22;12071;50.850;4.446;2023-02-28T01:43:27;0.80;99.90
23783;DHT22;12071;50.850;4.446;2023-02-28T01:45:54;1.00;93.60
23783;DHT22;12071;50.850;4.446;2023-02-28T01:48:33;0.90;99.90
23783;DHT22;12071;50.850;4.446;2023-02-28T01:51:05;0.90;99.90
23783;DHT22;12071;50.850;4.446;2023-02-28T01:53:39;0.90;99.90
23783;DHT22;12071;50.850;4.446;2023-02-28T01:56:08;1.10;99.90
23783;DHT22;12071;50.850;4.446;2023-02-28T01:58:36;1.20;1.00
23783;DHT22;12071;50.850;4.446;2023-02-28T02:01:02;1.00;1.00
23783;DHT22;12071;50.850;4.446;2023-02-28T02:03:29;1.00;99.90
23783;DHT22;12071;50.850;4.446;2023-02-28T02:05:55;0.80;99.90
23783;DHT22;12071;50.850;4.446;2023-02-28T02:08:26;0.80;99.90
23783;DHT22;12071;50.850;4.446;2023-02-28T02:10:59;0.80;1.00
23783;DHT22;12071;50.850;4.446;2023-02-28T02:16:15;0.90;1.00
23783;DHT22;12071;50.850;4.446;2023-02-28T02:18:53;0.90;1.00
23783;DHT22;12071;50.850;4.446;2023-02-28T02:40:12;0.90;99.90
23783;DHT22;12071;50.850;4.446;2023-02-28T02:45:37;0.80;95.70
23783;DHT22;12071;50.850;4.446;2023-02-28T02:48:09;0.90;34.80
23783;DHT22;12071;50.850;4.446;2023-02-28T02:50:39;0.70;99.90
23783;DHT22;12071;50.850;4.446;2023-02-28T02:53:07;1.00;49.20
23783;DHT22;12071;50.850;4.446;2023-02-28T02:55:37;0.70;1.00
23783;DHT22;12071;50.850;4.446;2023-02-28T02:58:07;0.50;99.90
23783;DHT22;12071;50.850;4.446;2023-02-28T03:00:38;0.50;99.90
23783;DHT22;12071;50.850;4.446;2023-02-28T03:03:07;0.50;99.90
23783;DHT22;12071;50.850;4.446;2023-02-28T03:05:44;0.60;99.90
23783;DHT22;12071;50.850;4.446;2023-02-28T03:08:11;0.60;99.90
23783;DHT22;12071;50.850;4.446;2023-02-28T03:10:38;0.70;99.90
23783;DHT22;12071;50.850;4.446;2023-02-28T03:13:48;0.70;99.90
23783;DHT22;12071;50.850;4.446;2023-02-28T03:16:48;0.60;99.90
23783;DHT22;12071;50.850;4.446;2023-02-28T03:27:31;0.60;99.90
23783;DHT22;12071;50.850;4.446;2023-02-28T03:30:13;0.50;99.90
23783;DHT22;12071;50.850;4.446;2023-02-28T03:35:12;0.40;99.90
23783;DHT22;12071;50.850;4.446;2023-02-28T03:37:41;0.40;1.00
23783;DHT22;12071;50.850;4.446;2023-02-28T03:40:14;0.40;1.00
23783;DHT22;12071;50.850;4.446;2023-02-28T03:42:43;0.20;1.00
23783;DHT22;12071;50.850;4.446;2023-02-28T03:45:19;0.20;78.70
23783;DHT22;12071;50.850;4.446;2023-02-28T03:47:55;0.30;11.00
23783;DHT22;12071;50.850;4.446;2023-02-28T03:50:40;0.40;1.00
23783;DHT22;12071;50.850;4.446;2023-02-28T03:53:25;0.30;1.00
23783;DHT22;12071;50.850;4.446;2023-02-28T04:01:35;0.00;99.90
23783;DHT22;12071;50.850;4.446;2023-02-28T04:04:03;0.20;99.90
23783;DHT22;12071;50.850;4.446;2023-02-28T04:06:31;0.30;46.80
23783;DHT22;12071;50.850;4.446;2023-02-28T04:08:57;0.30;1.00
23783;DHT22;12071;50.850;4.446;2023-02-28T04:11:29;0.20;1.00
23783;DHT22;12071;50.850;4.446;2023-02-28T04:13:57;0.20;1.00
23783;DHT22;12071;50.850;4.446;2023-02-28T04:16:23;0.10;36.70
23783;DHT22;12071;50.850;4.446;2023-02-28T04:18:48;-0.10;99.90
23783;DHT22;12071;50.850;4.446;2023-02-28T04:21:14;-0.20;99.90
23783;DHT22;12071;50.850;4.446;2023-02-28T04:23:39;-0.30;99.90
23783;DHT22;12071;50.850;4.446;2023-02-28T04:26:05;-0.10;99.90
23783;DHT22;12071;50.850;4.446;2023-02-28T04:28:32;-0.10;99.90
23783;DHT22;12071;50.850;4.446;2023-02-28T04:31:01;0.00;99.90
23783;DHT22;12071;50.850;4.446;2023-02-28T04:33:28;0.30;99.90
23783;DHT22;12071;50.850;4.446;2023-02-28T04:36:07;0.40;99.90
23783;DHT22;12071;50.850;4.446;2023-02-28T04:38:35;0.50;33.70
23783;DHT22;12071;50.850;4.446;2023-02-28T04:41:01;0.50;1.00
23783;DHT22;12071;50.850;4.446;2023-02-28T04:43:28;0.50;1.00
23783;DHT22;12071;50.850;4.446;2023-02-28T04:45:54;0.60;1.00
23783;DHT22;12071;50.850;4.446;2023-02-28T04:48:24;0.30;1.00
23783;DHT22;12071;50.850;4.446;2023-02-28T04:50:50;0.20;31.10
23783;DHT22;12071;50.850;4.446;2023-02-28T04:53:16;0.10;99.90
23783;DHT22;12071;50.850;4.446;2023-02-28T04:55:42;0.30;99.90
23783;DHT22;12071;50.850;4.446;2023-02-28T04:58:08;0.30;99.90
23783;DHT22;12071;50.850;4.446;2023-02-28T05:00:33;0.30;74.80
23783;DHT22;12071;50.850;4.446;2023-02-28T05:02:59;0.40;37.40
23783;DHT22;12071;50.850;4.446;2023-02-28T05:05:24;0.50;1.00
23783;DHT22;12071;50.850;4.446;2023-02-28T05:07:50;0.30;1.00
23783;DHT22;12071;50.850;4.446;2023-02-28T05:10:16;0.20;98.20
23783;DHT22;12071;50.850;4.446;2023-02-28T05:12:41;0.40;99.90
23783;DHT22;12071;50.850;4.446;2023-02-28T05:15:10;0.40;99.90
23783;DHT22;12071;50.850;4.446;2023-02-28T05:17:38;0.30;99.90
23783;DHT22;12071;50.850;4.446;2023-02-28T05:20:03;0.10;99.90
23783;DHT22;12071;50.850;4.446;2023-02-28T05:22:30;0.30;99.90
23783;DHT22;12071;50.850;4.446;2023-02-28T05:24:55;0.70;99.90
23783;DHT22;12071;50.850;4.446;2023-02-28T05:27:21;0.70;99.90
23783;DHT22;12071;50.850;4.446;2023-02-28T05:29:47;0.60;99.90
23783;DHT22;12071;50.850;4.446;2023-02-28T05:32:12;0.80;99.90
23783;DHT22;12071;50.850;4.446;2023-02-28T05:34:39;0.80;99.90
23783;DHT22;12071;50.850;4.446;2023-02-28T05:37:06;0.80;99.90
23783;DHT22;12071;50.850;4.446;2023-02-28T05:39:32;0.80;99.90
23783;DHT22;12071;50.850;4.446;2023-02-28T05:41:58;0.70;99.90
23783;DHT22;12071;50.850;4.446;2023-02-28T05:44:24;0.60;99.90
23783;DHT22;12071;50.850;4.446;2023-02-28T05:46:50;0.50;99.90
23783;DHT22;12071;50.850;4.446;2023-02-28T05:49:15;0.60;99.90
23783;DHT22;12071;50.850;4.446;2023-02-28T05:51:41;0.60;99.90
23783;DHT22;12071;50.850;4.446;2023-02-28T05:54:07;0.60;99.90
23783;DHT22;12071;50.850;4.446;2023-02-28T05:56:33;0.60;99.90
23783;DHT22;12071;50.850;4.446;2023-02-28T05:59:00;0.60;99.90
23783;DHT22;12071;50.850;4.446;2023-02-28T06:01:37;0.60;99.90
23783;DHT22;12071;50.850;4.446;2023-02-28T06:04:05;0.80;99.90
23783;DHT22;12071;50.850;4.446;2023-02-28T06:06:32;1.00;99.90
23783;DHT22;12071;50.850;4.446;2023-02-28T06:09:00;1.00;99.90
23783;DHT22;12071;50.850;4.446;2023-02-28T06:11:26;1.00;99.90
23783;DHT22;12071;50.850;4.446;2023-02-28T06:13:59;0.80;99.90
23783;DHT22;12071;50.850;4.446;2023-02-28T06:16:27;0.90;99.90
23783;DHT22;12071;50.850;4.446;2023-02-28T06:18:53;0.90;99.90
23783;DHT22;12071;50.850;4.446;2023-02-28T06:21:22;0.90;99.90
23783;DHT22;12071;50.850;4.446;2023-02-28T06:23:47;1.00;99.90
23783;DHT22;12071;50.850;4.446;2023-02-28T06:26:13;0.80;99.90
23783;DHT22;12071;50.850;4.446;2023-02-28T06:28:39;0.90;99.90
23783;DHT22;12071;50.850;4.446;2023-02-28T06:31:13;1.00;99.90
23783;DHT22;12071;50.850;4.446;2023-02-28T06:33:40;1.00;99.90
23783;DHT22;12071;50.850;4.446;2023-02-28T06:36:07;1.00;99.90
23783;DHT22;12071;50.850;4.446;2023-02-28T06:38:33;1.00;99.90
23783;DHT22;12071;50.850;4.446;2023-02-28T06:41:00;1.10;99.90
23783;DHT22;12071;50.850;4.446;2023-02-28T06:43:28;1.00;99.90
23783;DHT22;12071;50.850;4.446;2023-02-28T06:45:58;1.10;99.90
23783;DHT22;12071;50.850;4.446;2023-02-28T06:48:25;1.30;99.90
23783;DHT22;12071;50.850;4.446;2023-02-28T06:50:52;1.40;99.90
23783;DHT22;12071;50.850;4.446;2023-02-28T06:53:17;1.30;99.90
23783;DHT22;12071;50.850;4.446;2023-02-28T06:55:43;1.40;99.90
23783;DHT22;12071;50.850;4.446;2023-02-28T06:58:09;1.30;99.90
23783;DHT22;12071;50.850;4.446;2023-02-28T07:00:42;1.40;99.90
23783;DHT22;12071;50.850;4.446;2023-02-28T07:03:08;1.60;99.90
23783;DHT22;12071;50.850;4.446;2023-02-28T07:05:35;1.80;99.90
23783;DHT22;12071;50.850;4.446;2023-02-28T07:08:01;1.70;1.00
23783;DHT22;12071;50.850;4.446;2023-02-28T07:10:29;1.60;49.90
23783;DHT22;12071;50.850;4.446;2023-02-28T07:12:55;1.70;99.90
23783;DHT22;12071;50.850;4.446;2023-02-28T07:15:21;1.80;1.00
23783;DHT22;12071;50.850;4.446;2023-02-28T07:17:46;2.00;1.00
23783;DHT22;12071;50.850;4.446;2023-02-28T07:20:12;2.00;1.00
23783;DHT22;12071;50.850;4.446;2023-02-28T07:22:38;2.10;1.00
23783;DHT22;12071;50.850;4.446;2023-02-28T07:25:04;2.10;1.00
23783;DHT22;12071;50.850;4.446;2023-02-28T07:27:30;2.20;1.00
23783;DHT22;12071;50.850;4.446;2023-02-28T07:29:56;2.10;99.90
23783;DHT22;12071;50.850;4.446;2023-02-28T07:32:22;2.10;99.90
23783;DHT22;12071;50.850;4.446;2023-02-28T07:34:48;2.30;99.90
23783;DHT22;12071;50.850;4.446;2023-02-28T07:37:14;2.30;99.90
23783;DHT22;12071;50.850;4.446;2023-02-28T07:39:40;2.40;99.90
23783;DHT22;12071;50.850;4.446;2023-02-28T07:42:07;2.20;99.90
23783;DHT22;12071;50.850;4.446;2023-02-28T07:44:36;2.10;99.90
23783;DHT22;12071;50.850;4.446;2023-02-28T07:47:06;2.10;99.90
23783;DHT22;12071;50.850;4.446;2023-02-28T07:49:32;2.00;21.30
23783;DHT22;12071;50.850;4.446;2023-02-28T07:51:57;2.00;27.00
23783;DHT22;12071;50.850;4.446;2023-02-28T07:54:23;2.00;1.00
23783;DHT22;12071;50.850;4.446;2023-02-28T07:56:48;1.90;1.00
23783;DHT22;12071;50.850;4.446;2023-02-28T07:59:14;2.00;1.00
23783;DHT22;12071;50.850;4.446;2023-02-28T08:01:40;2.20;1.00
23783;DHT22;12071;50.850;4.446;2023-02-28T08:04:05;2.20;99.90
23783;DHT22;12071;50.850;4.446;2023-02-28T08:06:31;2.10;99.90
23783;DHT22;12071;50.850;4.446;2023-02-28T08:08:56;2.30;99.90
23783;DHT22;12071;50.850;4.446;2023-02-28T08:11:22;2.50;99.90
23783;DHT22;12071;50.850;4.446;2023-02-28T08:13:48;2.40;1.00
23783;DHT22;12071;50.850;4.446;2023-02-28T08:16:14;2.60;99.90
23783;DHT22;12071;50.850;4.446;2023-02-28T08:18:43;2.60;99.90
23783;DHT22;12071;50.850;4.446;2023-02-28T08:21:09;2.50;35.70
23783;DHT22;12071;50.850;4.446;2023-02-28T08:23:35;2.70;1.00
23783;DHT22;12071;50.850;4.446;2023-02-28T08:26:02;2.80;1.00
23783;DHT22;12071;50.850;4.446;2023-02-28T08:28:27;2.80;99.90
23783;DHT22;12071;50.850;4.446;2023-02-28T08:30:53;2.90;99.90
23783;DHT22;12071;50.850;4.446;2023-02-28T08:33:20;3.10;99.90
23783;DHT22;12071;50.850;4.446;2023-02-28T08:35:46;3.00;1.00
23783;DHT22;12071;50.850;4.446;2023-02-28T08:38:11;2.90;1.00
23783;DHT22;12071;50.850;4.446;2023-02-28T08:40:37;3.10;99.90
23783;DHT22;12071;50.850;4.446;2023-02-28T08:43:03;3.20;94.90
23783;DHT22;12071;50.850;4.446;2023-02-28T08:45:28;3.30;1.00
23783;DHT22;12071;50.850;4.446;2023-02-28T08:47:54;3.20;1.00
23783;DHT22;12071;50.850;4.446;2023-02-28T08:50:21;3.20;1.00
23783;DHT22;12071;50.850;4.446;2023-02-28T08:52:47;3.10;99.90
23783;DHT22;12071;50.850;4.446;2023-02-28T08:55:12;3.00;99.90
23783;DHT22;12071;50.850;4.446;2023-02-28T08:57:38;3.10;99.90
23783;DHT22;12071;50.850;4.446;2023-02-28T09:00:04;3.10;99.90
23783;DHT22;12071;50.850;4.446;2023-02-28T09:02:31;3.30;99.90
23783;DHT22;12071;50.850;4.446;2023-02-28T09:04:57;3.50;1.00
23783;DHT22;12071;50.850;4.446;2023-02-28T09:07:23;3.50;99.90
23783;DHT22;12071;50.850;4.446;2023-02-28T09:09:49;3.50;99.90
23783;DHT22;12071;50.850;4.446;2023-02-28T09:12:25;3.60;99.90
23783;DHT22;12071;50.850;4.446;2023-02-28T09:14:51;3.50;99.90
23783;DHT22;12071;50.850;4.446;2023-02-28T09:17:17;3.70;99.90
23783;DHT22;12071;50.850;4.446;2023-02-28T09:19:43;3.70;45.10
23783;DHT22;12071;50.850;4.446;2023-02-28T09:22:10;3.80;18.90
23783;DHT22;12071;50.850;4.446;2023-02-28T09:24:38;3.80;1.00
23783;DHT22;12071;50.850;4.446;2023-02-28T09:27:04;3.80;1.00
23783;DHT22;12071;50.850;4.446;2023-02-28T09:29:31;3.90;99.90
23783;DHT22;12071;50.850;4.446;2023-02-28T09:31:57;3.90;99.90
23783;DHT22;12071;50.850;4.446;2023-02-28T09:34:24;4.10;99.90
23783;DHT22;12071;50.850;4.446;2023-02-28T09:36:50;3.90;99.90
23783;DHT22;12071;50.850;4.446;2023-02-28T09:39:20;4.00;99.90
23783;DHT22;12071;50.850;4.446;2023-02-28T09:41:50;4.10;99.90
23783;DHT22;12071;50.850;4.446;2023-02-28T09:46:48;4.00;99.90
23783;DHT22;12071;50.850;4.446;2023-02-28T09:49:17;4.10;80.20
23783;DHT22;12071;50.850;4.446;2023-02-28T09:52:12;4.20;6.50
23783;DHT22;12071;50.850;4.446;2023-02-28T09:54:39;4.10;25.70
23783;DHT22;12071;50.850;4.446;2023-02-28T09:57:37;4.30;2.70
23783;DHT22;12071;50.850;4.446;2023-02-28T10:00:24;4.60;1.00
23783;DHT22;12071;50.850;4.446;2023-02-28T10:05:54;5.10;1.00
23783;DHT22;12071;50.850;4.446;2023-02-28T10:08:40;5.10;1.00
23783;DHT22;12071;50.850;4.446;2023-02-28T10:11:07;4.80;1.00
23783;DHT22;12071;50.850;4.446;2023-02-28T10:13:36;4.90;1.00
23783;DHT22;12071;50.850;4.446;2023-02-28T10:16:17;4.70;99.90
23783;DHT22;12071;50.850;4.446;2023-02-28T10:19:01;4.80;99.90
23783;DHT22;12071;50.850;4.446;2023-02-28T10:21:34;5.00;99.90
23783;DHT22;12071;50.850;4.446;2023-02-28T10:24:29;5.00;99.90
23783;DHT22;12071;50.850;4.446;2023-02-28T10:27:17;5.10;99.90
23783;DHT22;12071;50.850;4.446;2023-02-28T10:29:46;5.40;99.90
23783;DHT22;12071;50.850;4.446;2023-02-28T10:32:17;5.40;99.90
23783;DHT22;12071;50.850;4.446;2023-02-28T10:34:43;5.20;99.90
23783;DHT22;12071;50.850;4.446;2023-02-28T10:37:10;5.00;99.90
23783;DHT22;12071;50.850;4.446;2023-02-28T10:39:40;5.10;99.90
23783;DHT22;12071;50.850;4.446;2023-02-28T10:42:21;5.10;99.90
23783;DHT22;12071;50.850;4.446;2023-02-28T10:44:47;5.20;99.90
23783;DHT22;12071;50.850;4.446;2023-02-28T10:47:17;5.40;99.90
23783;DHT22;12071;50.850;4.446;2023-02-28T10:49:49;5.60;99.90
23783;DHT22;12071;50.850;4.446;2023-02-28T10:52:34;5.80;99.90
23783;DHT22;12071;50.850;4.446;2023-02-28T10:55:34;5.70;99.90
23783;DHT22;12071;50.850;4.446;2023-02-28T10:57:59;5.50;99.90
23783;DHT22;12071;50.850;4.446;2023-02-28T11:00:32;5.50;99.90
23783;DHT22;12071;50.850;4.446;2023-02-28T11:02:58;5.40;99.90
23783;DHT22;12071;50.850;4.446;2023-02-28T11:05:32;5.70;99.90
23783;DHT22;12071;50.850;4.446;2023-02-28T11:08:10;6.20;99.90
23783;DHT22;12071;50.850;4.446;2023-02-28T11:10:36;6.20;99.90
23783;DHT22;12071;50.850;4.446;2023-02-28T11:13:02;6.20;99.90
23783;DHT22;12071;50.850;4.446;2023-02-28T11:15:37;6.10;99.90
23783;DHT22;12071;50.850;4.446;2023-02-28T11:20:49;5.90;99.90
23783;DHT22;12071;50.850;4.446;2023-02-28T11:23:16;5.70;99.90
23783;DHT22;12071;50.850;4.446;2023-02-28T11:25:47;5.70;99.90
23783;DHT22;12071;50.850;4.446;2023-02-28T11:28:35;5.70;99.90
23783;DHT22;12071;50.850;4.446;2023-02-28T11:31:16;5.70;99.90
23783;DHT22;12071;50.850;4.446;2023-02-28T11:33:49;5.80;99.90
23783;DHT22;12071;50.850;4.446;2023-02-28T11:36:24;6.00;99.90
23783;DHT22;12071;50.850;4.446;2023-02-28T11:38:51;6.10;99.90
23783;DHT22;12071;50.850;4.446;2023-02-28T11:41:28;6.20;99.90
23783;DHT22;12071;50.850;4.446;2023-02-28T11:49:26;6.40;99.90
23783;DHT22;12071;50.850;4.446;2023-02-28T11:52:20;6.40;99.90
23783;DHT22;12071;50.850;4.446;2023-02-28T11:57:49;6.30;99.90
23783;DHT22;12071;50.850;4.446;2023-02-28T12:00:39;6.50;99.90
23783;DHT22;12071;50.850;4.446;2023-02-28T12:05:49;6.40;99.90
23783;DHT22;12071;50.850;4.446;2023-02-28T12:11:15;6.30;99.90
23783;DHT22;12071;50.850;4.446;2023-02-28T12:16:52;6.40;99.90
23783;DHT22;12071;50.850;4.446;2023-02-28T12:19:43;6.40;99.90
23783;DHT22;12071;50.850;4.446;2023-02-28T12:24:50;6.70;90.70
23783;DHT22;12071;50.850;4.446;2023-02-28T12:27:23;6.80;99.90
23783;DHT22;12071;50.850;4.446;2023-02-28T12:29:54;6.70;90.50
23783;DHT22;12071;50.850;4.446;2023-02-28T12:32:32;6.70;90.40
23783;DHT22;12071;50.850;4.446;2023-02-28T12:35:06;7.00;98.60
23783;DHT22;12071;50.850;4.446;2023-02-28T12:37:51;7.20;85.10
23783;DHT22;12071;50.850;4.446;2023-02-28T12:40:26;7.20;84.50
23783;DHT22;12071;50.850;4.446;2023-02-28T12:43:02;7.10;56.00
23783;DHT22;12071;50.850;4.446;2023-02-28T12:45:42;7.00;71.60
23783;DHT22;12071;50.850;4.446;2023-02-28T12:48:15;7.00;61.60
23783;DHT22;12071;50.850;4.446;2023-02-28T12:50:44;7.20;54.60
23783;DHT22;12071;50.850;4.446;2023-02-28T12:53:24;7.30;67.40
23783;DHT22;12071;50.850;4.446;2023-02-28T12:56:02;7.20;78.60
23783;DHT22;12071;50.850;4.446;2023-02-28T12:58:42;7.40;83.20
23783;DHT22;12071;50.850;4.446;2023-02-28T13:09:38;7.80;73.80
23783;DHT22;12071;50.850;4.446;2023-02-28T13:12:15;7.80;65.80
23783;DHT22;12071;50.850;4.446;2023-02-28T13:14:42;7.60;52.60
23783;DHT22;12071;50.850;4.446;2023-02-28T13:22:40;7.80;62.40
23783;DHT22;12071;50.850;4.446;2023-02-28T13:27:53;7.70;71.30
23783;DHT22;12071;50.850;4.446;2023-02-28T13:33:24;7.60;64.30
23783;DHT22;12071;50.850;4.446;2023-02-28T13:41:48;8.10;68.30
23783;DHT22;12071;50.850;4.446;2023-02-28T13:44:22;8.00;59.80
23783;DHT22;12071;50.850;4.446;2023-02-28T13:49:24;7.50;47.80
23783;DHT22;12071;50.850;4.446;2023-02-28T14:06:16;7.80;47.80
23783;DHT22;12071;50.850;4.446;2023-02-28T14:09:06;7.90;39.90
23783;DHT22;12071;50.850;4.446;2023-02-28T14:11:43;7.80;51.80
23783;DHT22;12071;50.850;4.446;2023-02-28T14:17:12;8.40;57.90
23783;DHT22;12071;50.850;4.446;2023-02-28T14:19:39;8.80;76.90
23783;DHT22;12071;50.850;4.446;2023-02-28T14:25:01;9.70;68.20
23783;DHT22;12071;50.850;4.446;2023-02-28T14:33:14;11.90;83.40
23783;DHT22;12071;50.850;4.446;2023-02-28T14:38:17;14.10;59.90
23783;DHT22;12071;50.850;4.446;2023-02-28T14:40:45;13.40;99.90
23783;DHT22;12071;50.850;4.446;2023-02-28T14:43:23;14.40;99.90
23783;DHT22;12071;50.850;4.446;2023-02-28T14:45:52;14.70;99.90
23783;DHT22;12071;50.850;4.446;2023-02-28T14:48:20;15.60;99.90
23783;DHT22;12071;50.850;4.446;2023-02-28T14:50:51;15.60;99.90
23783;DHT22;12071;50.850;4.446;2023-02-28T14:53:19;15.50;99.90
23783;DHT22;12071;50.850;4.446;2023-02-28T14:55:47;15.30;99.90
23783;DHT22;12071;50.850;4.446;2023-02-28T14:58:28;15.10;99.90
23783;DHT22;12071;50.850;4.446;2023-02-28T15:00:56;14.80;99.90
23783;DHT22;12071;50.850;4.446;2023-02-28T15:06:14;13.70;99.90
23783;DHT22;12071;50.850;4.446;2023-02-28T15:08:43;13.10;94.40
23783;DHT22;12071;50.850;4.446;2023-02-28T15:11:16;13.20;99.90
23783;DHT22;12071;50.850;4.446;2023-02-28T15:13:49;13.40;99.90
23783;DHT22;12071;50.850;4.446;2023-02-28T15:16:40;13.90;99.90
23783;DHT22;12071;50.850;4.446;2023-02-28T15:19:29;15.30;99.90
23783;DHT22;12071;50.850;4.446;2023-02-28T15:22:06;15.80;99.90
23783;DHT22;12071;50.850;4.446;2023-02-28T15:24:39;16.50;99.90
23783;DHT22;12071;50.850;4.446;2023-02-28T15:27:12;16.50;99.90
23783;DHT22;12071;50.850;4.446;2023-02-28T15:29:46;16.70;99.90
23783;DHT22;12071;50.850;4.446;2023-02-28T15:32:32;16.60;99.90
23783;DHT22;12071;50.850;4.446;2023-02-28T15:35:16;16.70;99.90
23783;DHT22;12071;50.850;4.446;2023-02-28T15:37:51;16.00;99.90
23783;DHT22;12071;50.850;4.446;2023-02-28T15:40:28;16.00;99.90
23783;DHT22;12071;50.850;4.446;2023-02-28T15:45:41;15.70;94.50
23783;DHT22;12071;50.850;4.446;2023-02-28T15:48:24;15.10;93.70
23783;DHT22;12071;50.850;4.446;2023-02-28T15:53:31;15.00;95.80
23783;DHT22;12071;50.850;4.446;2023-02-28T15:56:02;16.00;86.30
23783;DHT22;12071;50.850;4.446;2023-02-28T15:58:28;16.70;45.60
23783;DHT22;12071;50.850;4.446;2023-02-28T16:01:19;16.90;53.80
23783;DHT22;12071;50.850;4.446;2023-02-28T16:03:48;15.90;48.00
23783;DHT22;12071;50.850;4.446;2023-02-28T16:08:45;16.20;61.50
23783;DHT22;12071;50.850;4.446;2023-02-28T16:11:11;16.70;62.80
23783;DHT22;12071;50.850;4.446;2023-02-28T16:13:37;16.80;84.20
23783;DHT22;12071;50.850;4.446;2023-02-28T16:16:02;16.10;60.50
23783;DHT22;12071;50.850;4.446;2023-02-28T16:18:28;15.90;64.00
23783;DHT22;12071;50.850;4.446;2023-02-28T16:20:54;15.40;70.20
23783;DHT22;12071;50.850;4.446;2023-02-28T16:23:19;15.00;45.90
23783;DHT22;12071;50.850;4.446;2023-02-28T16:25:45;15.10;48.20
23783;DHT22;12071;50.850;4.446;2023-02-28T16:28:25;15.10;62.10
23783;DHT22;12071;50.850;4.446;2023-02-28T16:30:52;15.40;76.70
23783;DHT22;12071;50.850;4.446;2023-02-28T16:33:17;14.60;59.00
23783;DHT22;12071;50.850;4.446;2023-02-28T16:35:43;14.80;78.80
23783;DHT22;12071;50.850;4.446;2023-02-28T16:38:08;14.70;92.90
23783;DHT22;12071;50.850;4.446;2023-02-28T16:40:35;14.20;93.10
23783;DHT22;12071;50.850;4.446;2023-02-28T16:43:05;13.30;92.40
23783;DHT22;12071;50.850;4.446;2023-02-28T16:45:33;12.90;61.80
23783;DHT22;12071;50.850;4.446;2023-02-28T16:47:59;12.60;54.50
23783;DHT22;12071;50.850;4.446;2023-02-28T16:50:29;12.00;51.20
23783;DHT22;12071;50.850;4.446;2023-02-28T16:52:56;11.30;61.10
23783;DHT22;12071;50.850;4.446;2023-02-28T16:55:22;10.00;53.00
23783;DHT22;12071;50.850;4.446;2023-02-28T16:57:54;9.30;43.70
23783;DHT22;12071;50.850;4.446;2023-02-28T17:00:20;8.70;44.20
23783;DHT22;12071;50.850;4.446;2023-02-28T17:02:46;8.10;48.70
23783;DHT22;12071;50.850;4.446;2023-02-28T17:05:12;7.80;33.20
23783;DHT22;12071;50.850;4.446;2023-02-28T17:07:39;7.60;37.40
23783;DHT22;12071;50.850;4.446;2023-02-28T17:12:36;7.40;37.00
23783;DHT22;12071;50.850;4.446;2023-02-28T17:15:02;7.00;50.90
23783;DHT22;12071;50.850;4.446;2023-02-28T17:17:28;6.90;42.70
23783;DHT22;12071;50.850;4.446;2023-02-28T17:19:54;6.90;38.20
23783;DHT22;12071;50.850;4.446;2023-02-28T17:22:20;6.80;38.80
23783;DHT22;12071;50.850;4.446;2023-02-28T17:24:45;6.70;61.10
23783;DHT22;12071;50.850;4.446;2023-02-28T17:27:12;6.60;43.50
23783;DHT22;12071;50.850;4.446;2023-02-28T17:29:38;6.50;51.90
23783;DHT22;12071;50.850;4.446;2023-02-28T17:32:04;6.50;43.80
23783;DHT22;12071;50.850;4.446;2023-02-28T17:34:29;6.50;50.00
23783;DHT22;12071;50.850;4.446;2023-02-28T17:36:55;6.40;55.80
23783;DHT22;12071;50.850;4.446;2023-02-28T17:39:21;6.30;41.50
23783;DHT22;12071;50.850;4.446;2023-02-28T17:41:53;6.20;20.00
23783;DHT22;12071;50.850;4.446;2023-02-28T17:44:20;6.10;31.60
23783;DHT22;12071;50.850;4.446;2023-02-28T17:46:46;5.90;1.00
23783;DHT22;12071;50.850;4.446;2023-02-28T17:49:12;6.10;1.00
23783;DHT22;12071;50.850;4.446;2023-02-28T17:51:38;5.90;1.00
23783;DHT22;12071;50.850;4.446;2023-02-28T17:54:03;5.80;1.00
23783;DHT22;12071;50.850;4.446;2023-02-28T17:56:30;5.80;1.00
23783;DHT22;12071;50.850;4.446;2023-02-28T17:58:56;5.90;1.00
23783;DHT22;12071;50.850;4.446;2023-02-28T18:01:23;5.80;1.00
23783;DHT22;12071;50.850;4.446;2023-02-28T18:03:52;5.70;1.00
23783;DHT22;12071;50.850;4.446;2023-02-28T18:06:27;5.70;1.00
23783;DHT22;12071;50.850;4.446;2023-02-28T18:08:53;5.60;1.00
23783;DHT22;12071;50.850;4.446;2023-02-28T18:11:20;5.50;1.00
23783;DHT22;12071;50.850;4.446;2023-02-28T18:13:51;5.40;1.00
23783;DHT22;12071;50.850;4.446;2023-02-28T18:16:18;5.20;1.00
23783;DHT22;12071;50.850;4.446;2023-02-28T18:18:44;5.30;1.00
23783;DHT22;12071;50.850;4.446;2023-02-28T18:21:11;5.20;1.00